sensor_id;sensor_type;location;lat;lon;timestamp;P1;durP1;ratioP1;P2;durP2;ratioP2
44218;SDS011;29889;52.034;5.570;2022-10-17T00:00:24;2.88;;;2.15;;
44218;SDS011;29889;52.034;5.570;2022-10-17T00:00:55;6.75;;;3.08;;
44218;SDS011;29889;52.034;5.570;2022-10-17T00:01:26;3.60;;;2.63;;
44218;SDS011;29889;52.034;5.570;2022-10-17T00:01:57;3.63;;;3.05;;
44218;SDS011;29889;52.034;5.570;2022-10-17T00:02:28;5.10;;;2.95;;
44218;SDS011;29889;52.034;5.570;2022-10-17T00:02:59;4.20;;;3.10;;
44218;SDS011;29889;52.034;5.570;2022-10-17T00:03:30;3.55;;;3.03;;
44218;SDS011;29889;52.034;5.570;2022-10-17T00:04:01;3.58;;;3.28;;
44218;SDS011;29889;52.034;5.570;2022-10-17T00:04:32;5.57;;;3.53;;
44218;SDS011;29889;52.034;5.570;2022-10-17T00:05:03;3.17;;;2.70;;
44218;SDS011;29889;52.034;5.570;2022-10-17T00:05:38;4.57;;;2.75;;
44218;SDS011;29889;52.034;5.570;2022-10-17T00:06:10;4.30;;;3.30;;
44218;SDS011;29889;52.034;5.570;2022-10-17T00:06:41;6.43;;;3.47;;
44218;SDS011;29889;52.034;5.570;2022-10-17T00:07:12;3.80;;;3.00;;
44218;SDS011;29889;52.034;5.570;2022-10-17T00:07:43;4.95;;;2.90;;
44218;SDS011;29889;52.034;5.570;2022-10-17T00:08:15;3.10;;;2.75;;
44218;SDS011;29889;52.034;5.570;2022-10-17T00:08:46;3.78;;;3.00;;
44218;SDS011;29889;52.034;5.570;2022-10-17T00:09:17;4.78;;;3.80;;
44218;SDS011;29889;52.034;5.570;2022-10-17T00:09:48;3.58;;;3.03;;
44218;SDS011;29889;52.034;5.570;2022-10-17T00:10:19;4.95;;;3.42;;
44218;SDS011;29889;52.034;5.570;2022-10-17T00:11:00;3.00;;;2.58;;
44218;SDS011;29889;52.034;5.570;2022-10-17T00:11:32;3.70;;;3.15;;
44218;SDS011;29889;52.034;5.570;2022-10-17T00:12:03;3.95;;;2.92;;
44218;SDS011;29889;52.034;5.570;2022-10-17T00:12:34;3.63;;;3.00;;
44218;SDS011;29889;52.034;5.570;2022-10-17T00:13:05;3.60;;;3.20;;
44218;SDS011;29889;52.034;5.570;2022-10-17T00:13:37;4.50;;;2.70;;
44218;SDS011;29889;52.034;5.570;2022-10-17T00:14:08;5.57;;;3.38;;
44218;SDS011;29889;52.034;5.570;2022-10-17T00:14:39;4.82;;;2.70;;
44218;SDS011;29889;52.034;5.570;2022-10-17T00:15:13;5.97;;;3.72;;
44218;SDS011;29889;52.034;5.570;2022-10-17T00:15:44;5.82;;;3.08;;
44218;SDS011;29889;52.034;5.570;2022-10-17T00:16:21;3.90;;;3.28;;
44218;SDS011;29889;52.034;5.570;2022-10-17T00:16:52;3.78;;;2.33;;
44218;SDS011;29889;52.034;5.570;2022-10-17T00:17:23;4.20;;;3.22;;
44218;SDS011;29889;52.034;5.570;2022-10-17T00:17:54;4.38;;;3.35;;
44218;SDS011;29889;52.034;5.570;2022-10-17T00:18:26;4.05;;;3.17;;
44218;SDS011;29889;52.034;5.570;2022-10-17T00:18:57;5.30;;;3.45;;
44218;SDS011;29889;52.034;5.570;2022-10-17T00:19:28;4.85;;;2.97;;
44218;SDS011;29889;52.034;5.570;2022-10-17T00:19:59;5.95;;;3.22;;
44218;SDS011;29889;52.034;5.570;2022-10-17T00:20:33;5.57;;;4.10;;
44218;SDS011;29889;52.034;5.570;2022-10-17T00:21:04;4.78;;;3.75;;
44218;SDS011;29889;52.034;5.570;2022-10-17T00:21:35;4.35;;;3.63;;
44218;SDS011;29889;52.034;5.570;2022-10-17T00:22:06;4.88;;;3.38;;
44218;SDS011;29889;52.034;5.570;2022-10-17T00:22:37;4.22;;;3.17;;
44218;SDS011;29889;52.034;5.570;2022-10-17T00:23:08;4.28;;;3.67;;
44218;SDS011;29889;52.034;5.570;2022-10-17T00:23:39;4.72;;;3.72;;
44218;SDS011;29889;52.034;5.570;2022-10-17T00:24:10;3.58;;;2.75;;
44218;SDS011;29889;52.034;5.570;2022-10-17T00:24:41;6.10;;;4.30;;
44218;SDS011;29889;52.034;5.570;2022-10-17T00:25:12;7.15;;;3.97;;
44218;SDS011;29889;52.034;5.570;2022-10-17T00:25:43;4.38;;;3.25;;
44218;SDS011;29889;52.034;5.570;2022-10-17T00:26:14;5.03;;;3.00;;
44218;SDS011;29889;52.034;5.570;2022-10-17T00:26:45;4.80;;;3.35;;
44218;SDS011;29889;52.034;5.570;2022-10-17T00:27:16;4.32;;;3.55;;
44218;SDS011;29889;52.034;5.570;2022-10-17T00:27:47;4.20;;;2.80;;
44218;SDS011;29889;52.034;5.570;2022-10-17T00:28:18;5.05;;;3.65;;
44218;SDS011;29889;52.034;5.570;2022-10-17T00:28:50;7.53;;;3.72;;
44218;SDS011;29889;52.034;5.570;2022-10-17T00:29:21;6.45;;;3.47;;
44218;SDS011;29889;52.034;5.570;2022-10-17T00:29:52;4.68;;;3.47;;
44218;SDS011;29889;52.034;5.570;2022-10-17T00:30:23;6.30;;;3.53;;
44218;SDS011;29889;52.034;5.570;2022-10-17T00:30:57;7.25;;;3.35;;
44218;SDS011;29889;52.034;5.570;2022-10-17T00:31:28;5.47;;;3.58;;
44218;SDS011;29889;52.034;5.570;2022-10-17T00:31:59;5.43;;;4.20;;
44218;SDS011;29889;52.034;5.570;2022-10-17T00:32:30;5.53;;;3.78;;
44218;SDS011;29889;52.034;5.570;2022-10-17T00:33:01;5.43;;;3.78;;
44218;SDS011;29889;52.034;5.570;2022-10-17T00:33:33;4.28;;;3.70;;
44218;SDS011;29889;52.034;5.570;2022-10-17T00:34:04;5.47;;;3.88;;
44218;SDS011;29889;52.034;5.570;2022-10-17T00:34:35;4.53;;;3.58;;
44218;SDS011;29889;52.034;5.570;2022-10-17T00:35:06;5.43;;;3.42;;
44218;SDS011;29889;52.034;5.570;2022-10-17T00:35:38;4.43;;;3.40;;
44218;SDS011;29889;52.034;5.570;2022-10-17T00:36:10;4.38;;;3.78;;
44218;SDS011;29889;52.034;5.570;2022-10-17T00:36:42;8.32;;;3.50;;
44218;SDS011;29889;52.034;5.570;2022-10-17T00:37:13;4.00;;;3.25;;
44218;SDS011;29889;52.034;5.570;2022-10-17T00:37:44;3.47;;;2.88;;
44218;SDS011;29889;52.034;5.570;2022-10-17T00:38:15;6.28;;;3.33;;
44218;SDS011;29889;52.034;5.570;2022-10-17T00:38:46;5.65;;;3.90;;
44218;SDS011;29889;52.034;5.570;2022-10-17T00:39:18;7.75;;;3.95;;
44218;SDS011;29889;52.034;5.570;2022-10-17T00:39:49;3.97;;;3.00;;
44218;SDS011;29889;52.034;5.570;2022-10-17T00:40:20;3.47;;;3.17;;
44218;SDS011;29889;52.034;5.570;2022-10-17T00:40:51;3.88;;;2.90;;
44218;SDS011;29889;52.034;5.570;2022-10-17T00:41:24;5.72;;;3.90;;
44218;SDS011;29889;52.034;5.570;2022-10-17T00:41:55;4.78;;;3.60;;
44218;SDS011;29889;52.034;5.570;2022-10-17T00:42:26;5.70;;;3.20;;
44218;SDS011;29889;52.034;5.570;2022-10-17T00:42:57;6.63;;;4.13;;
44218;SDS011;29889;52.034;5.570;2022-10-17T00:43:28;4.00;;;3.60;;
44218;SDS011;29889;52.034;5.570;2022-10-17T00:45:12;3.47;;;3.07;;
44218;SDS011;29889;52.034;5.570;2022-10-17T00:45:43;4.20;;;3.33;;
44218;SDS011;29889;52.034;5.570;2022-10-17T00:46:14;3.15;;;2.83;;
44218;SDS011;29889;52.034;5.570;2022-10-17T00:46:45;3.90;;;3.25;;
44218;SDS011;29889;52.034;5.570;2022-10-17T00:47:18;3.70;;;3.40;;
44218;SDS011;29889;52.034;5.570;2022-10-17T00:48:10;4.18;;;3.17;;
44218;SDS011;29889;52.034;5.570;2022-10-17T00:48:40;6.22;;;3.45;;
44218;SDS011;29889;52.034;5.570;2022-10-17T00:49:12;4.38;;;3.28;;
44218;SDS011;29889;52.034;5.570;2022-10-17T00:49:43;5.63;;;3.42;;
44218;SDS011;29889;52.034;5.570;2022-10-17T00:50:14;5.78;;;3.70;;
44218;SDS011;29889;52.034;5.570;2022-10-17T00:50:45;4.75;;;4.20;;
44218;SDS011;29889;52.034;5.570;2022-10-17T00:51:18;7.20;;;4.65;;
44218;SDS011;29889;52.034;5.570;2022-10-17T00:51:54;4.30;;;3.63;;
44218;SDS011;29889;52.034;5.570;2022-10-17T00:52:25;6.35;;;3.78;;
44218;SDS011;29889;52.034;5.570;2022-10-17T00:52:59;4.45;;;3.28;;
44218;SDS011;29889;52.034;5.570;2022-10-17T00:53:30;5.57;;;4.50;;
44218;SDS011;29889;52.034;5.570;2022-10-17T00:54:02;4.40;;;2.92;;
44218;SDS011;29889;52.034;5.570;2022-10-17T00:54:34;8.10;;;3.13;;
44218;SDS011;29889;52.034;5.570;2022-10-17T00:55:38;5.22;;;3.65;;
44218;SDS011;29889;52.034;5.570;2022-10-17T00:56:12;5.03;;;3.58;;
44218;SDS011;29889;52.034;5.570;2022-10-17T00:56:43;4.18;;;3.05;;
44218;SDS011;29889;52.034;5.570;2022-10-17T00:57:15;5.07;;;4.05;;
44218;SDS011;29889;52.034;5.570;2022-10-17T00:57:47;3.30;;;2.80;;
44218;SDS011;29889;52.034;5.570;2022-10-17T00:58:19;4.65;;;3.30;;
44218;SDS011;29889;52.034;5.570;2022-10-17T00:58:50;5.78;;;3.60;;
44218;SDS011;29889;52.034;5.570;2022-10-17T00:59:21;5.32;;;3.67;;
44218;SDS011;29889;52.034;5.570;2022-10-17T00:59:53;4.53;;;3.45;;
44218;SDS011;29889;52.034;5.570;2022-10-17T01:00:25;5.05;;;3.58;;
44218;SDS011;29889;52.034;5.570;2022-10-17T01:00:57;5.35;;;3.38;;
44218;SDS011;29889;52.034;5.570;2022-10-17T01:01:27;5.95;;;3.42;;
44218;SDS011;29889;52.034;5.570;2022-10-17T01:01:59;5.25;;;3.20;;
44218;SDS011;29889;52.034;5.570;2022-10-17T01:02:31;4.70;;;3.33;;
44218;SDS011;29889;52.034;5.570;2022-10-17T01:03:02;4.80;;;3.72;;
44218;SDS011;29889;52.034;5.570;2022-10-17T01:03:33;6.43;;;4.32;;
44218;SDS011;29889;52.034;5.570;2022-10-17T01:04:04;5.63;;;3.70;;
44218;SDS011;29889;52.034;5.570;2022-10-17T01:04:36;4.40;;;3.70;;
44218;SDS011;29889;52.034;5.570;2022-10-17T01:05:07;5.65;;;3.65;;
44218;SDS011;29889;52.034;5.570;2022-10-17T01:05:39;5.93;;;3.83;;
44218;SDS011;29889;52.034;5.570;2022-10-17T01:06:11;7.20;;;3.72;;
44218;SDS011;29889;52.034;5.570;2022-10-17T01:06:42;6.85;;;4.32;;
44218;SDS011;29889;52.034;5.570;2022-10-17T01:07:13;5.75;;;4.00;;
44218;SDS011;29889;52.034;5.570;2022-10-17T01:07:44;4.72;;;3.42;;
44218;SDS011;29889;52.034;5.570;2022-10-17T01:08:15;4.72;;;3.22;;
44218;SDS011;29889;52.034;5.570;2022-10-17T01:08:46;5.60;;;3.63;;
44218;SDS011;29889;52.034;5.570;2022-10-17T01:09:17;4.93;;;3.50;;
44218;SDS011;29889;52.034;5.570;2022-10-17T01:09:48;4.60;;;3.63;;
44218;SDS011;29889;52.034;5.570;2022-10-17T01:10:19;6.45;;;3.67;;
44218;SDS011;29889;52.034;5.570;2022-10-17T01:10:57;6.05;;;4.05;;
44218;SDS011;29889;52.034;5.570;2022-10-17T01:12:11;4.97;;;3.70;;
44218;SDS011;29889;52.034;5.570;2022-10-17T01:12:56;6.85;;;3.70;;
44218;SDS011;29889;52.034;5.570;2022-10-17T01:13:33;5.15;;;4.22;;
44218;SDS011;29889;52.034;5.570;2022-10-17T01:14:22;5.72;;;3.55;;
44218;SDS011;29889;52.034;5.570;2022-10-17T01:15:03;5.35;;;3.60;;
44218;SDS011;29889;52.034;5.570;2022-10-17T01:16:16;5.25;;;3.47;;
44218;SDS011;29889;52.034;5.570;2022-10-17T01:17:03;9.52;;;4.30;;
44218;SDS011;29889;52.034;5.570;2022-10-17T01:18:50;6.90;;;3.63;;
44218;SDS011;29889;52.034;5.570;2022-10-17T01:21:58;4.05;;;3.50;;
44218;SDS011;29889;52.034;5.570;2022-10-17T01:22:35;3.38;;;3.05;;
44218;SDS011;29889;52.034;5.570;2022-10-17T01:23:23;5.47;;;3.50;;
44218;SDS011;29889;52.034;5.570;2022-10-17T01:25:28;5.78;;;4.03;;
44218;SDS011;29889;52.034;5.570;2022-10-17T01:28:11;4.75;;;3.40;;
44218;SDS011;29889;52.034;5.570;2022-10-17T01:31:11;4.15;;;3.42;;
44218;SDS011;29889;52.034;5.570;2022-10-17T01:31:47;7.80;;;3.88;;
44218;SDS011;29889;52.034;5.570;2022-10-17T01:32:20;6.10;;;3.40;;
44218;SDS011;29889;52.034;5.570;2022-10-17T01:33:07;8.52;;;3.00;;
44218;SDS011;29889;52.034;5.570;2022-10-17T01:34:26;6.05;;;4.20;;
44218;SDS011;29889;52.034;5.570;2022-10-17T01:35:04;5.75;;;3.78;;
44218;SDS011;29889;52.034;5.570;2022-10-17T01:36:25;4.60;;;3.53;;
44218;SDS011;29889;52.034;5.570;2022-10-17T01:38:32;4.72;;;4.03;;
44218;SDS011;29889;52.034;5.570;2022-10-17T01:40:41;8.15;;;3.70;;
44218;SDS011;29889;52.034;5.570;2022-10-17T01:41:18;5.70;;;4.57;;
44218;SDS011;29889;52.034;5.570;2022-10-17T01:42:25;9.83;;;4.47;;
44218;SDS011;29889;52.034;5.570;2022-10-17T01:43:04;5.18;;;3.60;;
44218;SDS011;29889;52.034;5.570;2022-10-17T01:43:39;4.50;;;3.35;;
44218;SDS011;29889;52.034;5.570;2022-10-17T01:44:12;8.45;;;3.80;;
44218;SDS011;29889;52.034;5.570;2022-10-17T01:44:48;6.45;;;3.83;;
44218;SDS011;29889;52.034;5.570;2022-10-17T01:45:28;5.55;;;3.42;;
44218;SDS011;29889;52.034;5.570;2022-10-17T01:46:38;4.85;;;4.35;;
44218;SDS011;29889;52.034;5.570;2022-10-17T01:47:12;3.45;;;3.13;;
44218;SDS011;29889;52.034;5.570;2022-10-17T01:47:43;5.97;;;3.97;;
44218;SDS011;29889;52.034;5.570;2022-10-17T01:48:22;5.53;;;3.65;;
44218;SDS011;29889;52.034;5.570;2022-10-17T01:48:54;3.92;;;3.40;;
44218;SDS011;29889;52.034;5.570;2022-10-17T01:49:27;4.57;;;3.22;;
44218;SDS011;29889;52.034;5.570;2022-10-17T01:50:09;4.70;;;3.22;;
44218;SDS011;29889;52.034;5.570;2022-10-17T01:50:43;3.85;;;2.97;;
44218;SDS011;29889;52.034;5.570;2022-10-17T01:51:17;4.32;;;3.50;;
44218;SDS011;29889;52.034;5.570;2022-10-17T01:51:51;6.25;;;3.97;;
44218;SDS011;29889;52.034;5.570;2022-10-17T01:52:31;7.40;;;4.85;;
44218;SDS011;29889;52.034;5.570;2022-10-17T01:53:35;4.80;;;3.57;;
44218;SDS011;29889;52.034;5.570;2022-10-17T01:54:09;4.75;;;3.72;;
44218;SDS011;29889;52.034;5.570;2022-10-17T01:54:41;4.20;;;3.80;;
44218;SDS011;29889;52.034;5.570;2022-10-17T01:55:15;7.28;;;3.95;;
44218;SDS011;29889;52.034;5.570;2022-10-17T01:55:48;6.45;;;3.70;;
44218;SDS011;29889;52.034;5.570;2022-10-17T01:56:19;5.20;;;3.38;;
44218;SDS011;29889;52.034;5.570;2022-10-17T01:56:54;4.60;;;3.83;;
44218;SDS011;29889;52.034;5.570;2022-10-17T01:57:30;5.22;;;4.00;;
44218;SDS011;29889;52.034;5.570;2022-10-17T01:58:04;4.53;;;3.60;;
44218;SDS011;29889;52.034;5.570;2022-10-17T01:58:38;4.22;;;3.45;;
44218;SDS011;29889;52.034;5.570;2022-10-17T01:59:11;5.78;;;3.60;;
44218;SDS011;29889;52.034;5.570;2022-10-17T01:59:44;4.43;;;3.85;;
44218;SDS011;29889;52.034;5.570;2022-10-17T02:00:17;6.95;;;3.55;;
44218;SDS011;29889;52.034;5.570;2022-10-17T02:00:49;5.55;;;3.53;;
44218;SDS011;29889;52.034;5.570;2022-10-17T02:01:21;4.63;;;3.78;;
44218;SDS011;29889;52.034;5.570;2022-10-17T02:01:54;4.85;;;3.70;;
44218;SDS011;29889;52.034;5.570;2022-10-17T02:02:25;5.18;;;3.65;;
44218;SDS011;29889;52.034;5.570;2022-10-17T02:02:57;4.47;;;3.95;;
44218;SDS011;29889;52.034;5.570;2022-10-17T02:03:29;4.45;;;3.45;;
44218;SDS011;29889;52.034;5.570;2022-10-17T02:04:01;6.53;;;4.00;;
44218;SDS011;29889;52.034;5.570;2022-10-17T02:04:33;6.80;;;4.05;;
44218;SDS011;29889;52.034;5.570;2022-10-17T02:05:04;4.72;;;3.58;;
44218;SDS011;29889;52.034;5.570;2022-10-17T02:05:36;6.00;;;3.60;;
44218;SDS011;29889;52.034;5.570;2022-10-17T02:06:08;5.05;;;3.55;;
44218;SDS011;29889;52.034;5.570;2022-10-17T02:06:39;4.35;;;3.70;;
44218;SDS011;29889;52.034;5.570;2022-10-17T02:07:11;7.93;;;3.65;;
44218;SDS011;29889;52.034;5.570;2022-10-17T02:07:42;4.07;;;3.58;;
44218;SDS011;29889;52.034;5.570;2022-10-17T02:08:13;4.28;;;3.72;;
44218;SDS011;29889;52.034;5.570;2022-10-17T02:08:47;4.72;;;3.90;;
44218;SDS011;29889;52.034;5.570;2022-10-17T02:09:20;5.88;;;3.75;;
44218;SDS011;29889;52.034;5.570;2022-10-17T02:09:51;4.82;;;3.70;;
44218;SDS011;29889;52.034;5.570;2022-10-17T02:11:06;4.60;;;4.15;;
44218;SDS011;29889;52.034;5.570;2022-10-17T02:11:23;5.22;;;3.80;;
44218;SDS011;29889;52.034;5.570;2022-10-17T02:12:41;4.47;;;3.58;;
44218;SDS011;29889;52.034;5.570;2022-10-17T02:13:19;7.55;;;4.35;;
44218;SDS011;29889;52.034;5.570;2022-10-17T02:15:36;4.55;;;3.67;;
44218;SDS011;29889;52.034;5.570;2022-10-17T02:16:49;11.35;;;3.97;;
44218;SDS011;29889;52.034;5.570;2022-10-17T02:20:12;4.78;;;3.90;;
44218;SDS011;29889;52.034;5.570;2022-10-17T02:20:59;3.95;;;3.30;;
44218;SDS011;29889;52.034;5.570;2022-10-17T02:21:35;4.10;;;2.92;;
44218;SDS011;29889;52.034;5.570;2022-10-17T02:22:15;4.18;;;3.35;;
44218;SDS011;29889;52.034;5.570;2022-10-17T02:22:50;4.80;;;3.53;;
44218;SDS011;29889;52.034;5.570;2022-10-17T02:23:25;7.35;;;4.30;;
44218;SDS011;29889;52.034;5.570;2022-10-17T02:24:06;5.88;;;4.53;;
44218;SDS011;29889;52.034;5.570;2022-10-17T02:24:41;4.68;;;4.18;;
44218;SDS011;29889;52.034;5.570;2022-10-17T02:25:21;5.22;;;3.75;;
44218;SDS011;29889;52.034;5.570;2022-10-17T02:25:59;9.00;;;5.28;;
44218;SDS011;29889;52.034;5.570;2022-10-17T02:26:38;5.63;;;4.18;;
44218;SDS011;29889;52.034;5.570;2022-10-17T02:27:11;4.93;;;4.43;;
44218;SDS011;29889;52.034;5.570;2022-10-17T02:27:59;6.18;;;4.57;;
44218;SDS011;29889;52.034;5.570;2022-10-17T02:29:06;5.68;;;4.57;;
44218;SDS011;29889;52.034;5.570;2022-10-17T02:29:43;4.43;;;3.88;;
44218;SDS011;29889;52.034;5.570;2022-10-17T02:30:28;4.53;;;3.70;;
44218;SDS011;29889;52.034;5.570;2022-10-17T02:31:03;5.95;;;4.50;;
44218;SDS011;29889;52.034;5.570;2022-10-17T02:31:44;5.70;;;4.97;;
44218;SDS011;29889;52.034;5.570;2022-10-17T02:32:33;6.82;;;5.28;;
44218;SDS011;29889;52.034;5.570;2022-10-17T02:33:41;6.88;;;4.78;;
44218;SDS011;29889;52.034;5.570;2022-10-17T02:35:03;5.00;;;4.20;;
44218;SDS011;29889;52.034;5.570;2022-10-17T02:35:38;5.25;;;3.40;;
44218;SDS011;29889;52.034;5.570;2022-10-17T02:36:11;6.82;;;4.60;;
44218;SDS011;29889;52.034;5.570;2022-10-17T02:36:45;4.47;;;3.85;;
44218;SDS011;29889;52.034;5.570;2022-10-17T02:37:19;5.60;;;5.00;;
44218;SDS011;29889;52.034;5.570;2022-10-17T02:37:51;5.10;;;4.60;;
44218;SDS011;29889;52.034;5.570;2022-10-17T02:38:23;6.80;;;5.05;;
44218;SDS011;29889;52.034;5.570;2022-10-17T02:38:55;7.65;;;4.28;;
44218;SDS011;29889;52.034;5.570;2022-10-17T02:39:27;5.88;;;5.28;;
44218;SDS011;29889;52.034;5.570;2022-10-17T02:39:58;5.10;;;4.20;;
44218;SDS011;29889;52.034;5.570;2022-10-17T02:40:30;6.28;;;4.40;;
44218;SDS011;29889;52.034;5.570;2022-10-17T02:41:01;4.50;;;3.67;;
44218;SDS011;29889;52.034;5.570;2022-10-17T02:41:33;5.68;;;3.63;;
44218;SDS011;29889;52.034;5.570;2022-10-17T02:42:06;6.85;;;5.90;;
44218;SDS011;29889;52.034;5.570;2022-10-17T02:42:38;5.25;;;4.20;;
44218;SDS011;29889;52.034;5.570;2022-10-17T02:43:12;5.25;;;3.88;;
44218;SDS011;29889;52.034;5.570;2022-10-17T02:43:44;6.35;;;5.05;;
44218;SDS011;29889;52.034;5.570;2022-10-17T02:44:16;5.47;;;4.78;;
44218;SDS011;29889;52.034;5.570;2022-10-17T02:44:47;6.15;;;4.53;;
44218;SDS011;29889;52.034;5.570;2022-10-17T02:45:18;6.97;;;6.03;;
44218;SDS011;29889;52.034;5.570;2022-10-17T02:45:50;5.53;;;4.72;;
44218;SDS011;29889;52.034;5.570;2022-10-17T02:46:22;5.40;;;4.85;;
44218;SDS011;29889;52.034;5.570;2022-10-17T02:46:58;7.07;;;5.13;;
44218;SDS011;29889;52.034;5.570;2022-10-17T02:47:33;6.55;;;5.93;;
44218;SDS011;29889;52.034;5.570;2022-10-17T02:48:05;5.90;;;4.68;;
44218;SDS011;29889;52.034;5.570;2022-10-17T02:48:40;6.68;;;5.15;;
44218;SDS011;29889;52.034;5.570;2022-10-17T02:49:15;6.78;;;4.50;;
44218;SDS011;29889;52.034;5.570;2022-10-17T02:49:51;5.28;;;4.15;;
44218;SDS011;29889;52.034;5.570;2022-10-17T02:50:26;5.03;;;4.18;;
44218;SDS011;29889;52.034;5.570;2022-10-17T02:51:17;5.30;;;4.65;;
44218;SDS011;29889;52.034;5.570;2022-10-17T02:51:56;8.02;;;4.65;;
44218;SDS011;29889;52.034;5.570;2022-10-17T02:53:03;5.22;;;4.28;;
44218;SDS011;29889;52.034;5.570;2022-10-17T02:53:38;8.52;;;4.80;;
44218;SDS011;29889;52.034;5.570;2022-10-17T02:54:16;6.10;;;4.82;;
44218;SDS011;29889;52.034;5.570;2022-10-17T02:54:53;5.30;;;4.80;;
44218;SDS011;29889;52.034;5.570;2022-10-17T02:55:29;5.35;;;4.65;;
44218;SDS011;29889;52.034;5.570;2022-10-17T02:56:01;7.05;;;5.32;;
44218;SDS011;29889;52.034;5.570;2022-10-17T02:56:36;5.95;;;5.35;;
44218;SDS011;29889;52.034;5.570;2022-10-17T02:57:10;7.05;;;6.35;;
44218;SDS011;29889;52.034;5.570;2022-10-17T02:57:45;6.20;;;5.28;;
44218;SDS011;29889;52.034;5.570;2022-10-17T02:58:19;6.43;;;5.10;;
44218;SDS011;29889;52.034;5.570;2022-10-17T02:58:52;6.00;;;4.93;;
44218;SDS011;29889;52.034;5.570;2022-10-17T02:59:24;6.53;;;5.30;;
44218;SDS011;29889;52.034;5.570;2022-10-17T02:59:56;6.10;;;4.53;;
44218;SDS011;29889;52.034;5.570;2022-10-17T03:00:28;6.07;;;4.30;;
44218;SDS011;29889;52.034;5.570;2022-10-17T03:00:59;5.85;;;5.05;;
44218;SDS011;29889;52.034;5.570;2022-10-17T03:01:30;6.63;;;5.50;;
44218;SDS011;29889;52.034;5.570;2022-10-17T03:02:02;7.03;;;5.60;;
44218;SDS011;29889;52.034;5.570;2022-10-17T03:02:37;5.63;;;4.97;;
44218;SDS011;29889;52.034;5.570;2022-10-17T03:03:41;9.20;;;5.80;;
44218;SDS011;29889;52.034;5.570;2022-10-17T03:04:10;7.22;;;4.93;;
44218;SDS011;29889;52.034;5.570;2022-10-17T03:04:42;8.00;;;5.28;;
44218;SDS011;29889;52.034;5.570;2022-10-17T03:05:16;5.68;;;4.97;;
44218;SDS011;29889;52.034;5.570;2022-10-17T03:05:47;8.35;;;6.10;;
44218;SDS011;29889;52.034;5.570;2022-10-17T03:06:18;5.97;;;5.30;;
44218;SDS011;29889;52.034;5.570;2022-10-17T03:06:49;6.82;;;4.72;;
44218;SDS011;29889;52.034;5.570;2022-10-17T03:07:20;6.72;;;5.47;;
44218;SDS011;29889;52.034;5.570;2022-10-17T03:07:51;5.72;;;5.10;;
44218;SDS011;29889;52.034;5.570;2022-10-17T03:08:23;8.15;;;5.03;;
44218;SDS011;29889;52.034;5.570;2022-10-17T03:08:54;5.75;;;5.15;;
44218;SDS011;29889;52.034;5.570;2022-10-17T03:09:25;8.23;;;5.05;;
44218;SDS011;29889;52.034;5.570;2022-10-17T03:09:56;7.32;;;5.30;;
44218;SDS011;29889;52.034;5.570;2022-10-17T03:10:27;5.05;;;4.55;;
44218;SDS011;29889;52.034;5.570;2022-10-17T03:10:57;9.55;;;5.85;;
44218;SDS011;29889;52.034;5.570;2022-10-17T03:11:28;8.15;;;5.22;;
44218;SDS011;29889;52.034;5.570;2022-10-17T03:12:00;6.65;;;5.07;;
44218;SDS011;29889;52.034;5.570;2022-10-17T03:12:31;6.90;;;5.78;;
44218;SDS011;29889;52.034;5.570;2022-10-17T03:13:02;6.55;;;5.18;;
44218;SDS011;29889;52.034;5.570;2022-10-17T03:13:32;5.70;;;5.00;;
44218;SDS011;29889;52.034;5.570;2022-10-17T03:14:03;6.63;;;4.95;;
44218;SDS011;29889;52.034;5.570;2022-10-17T03:14:34;12.50;;;6.75;;
44218;SDS011;29889;52.034;5.570;2022-10-17T03:15:06;6.05;;;5.40;;
44218;SDS011;29889;52.034;5.570;2022-10-17T03:15:37;7.22;;;5.20;;
44218;SDS011;29889;52.034;5.570;2022-10-17T03:16:08;6.15;;;5.53;;
44218;SDS011;29889;52.034;5.570;2022-10-17T03:16:38;6.32;;;5.45;;
44218;SDS011;29889;52.034;5.570;2022-10-17T03:17:09;5.25;;;4.65;;
44218;SDS011;29889;52.034;5.570;2022-10-17T03:17:40;7.88;;;5.50;;
44218;SDS011;29889;52.034;5.570;2022-10-17T03:18:11;8.45;;;5.60;;
44218;SDS011;29889;52.034;5.570;2022-10-17T03:18:42;6.72;;;5.45;;
44218;SDS011;29889;52.034;5.570;2022-10-17T03:19:13;5.32;;;4.80;;
44218;SDS011;29889;52.034;5.570;2022-10-17T03:19:44;6.70;;;5.82;;
44218;SDS011;29889;52.034;5.570;2022-10-17T03:20:15;6.20;;;5.03;;
44218;SDS011;29889;52.034;5.570;2022-10-17T03:20:46;6.45;;;5.75;;
44218;SDS011;29889;52.034;5.570;2022-10-17T03:21:17;7.50;;;4.95;;
44218;SDS011;29889;52.034;5.570;2022-10-17T03:21:48;7.45;;;4.70;;
44218;SDS011;29889;52.034;5.570;2022-10-17T03:22:19;10.32;;;6.03;;
44218;SDS011;29889;52.034;5.570;2022-10-17T03:22:50;6.13;;;5.45;;
44218;SDS011;29889;52.034;5.570;2022-10-17T03:23:21;6.95;;;4.85;;
44218;SDS011;29889;52.034;5.570;2022-10-17T03:23:52;6.45;;;5.60;;
44218;SDS011;29889;52.034;5.570;2022-10-17T03:24:23;5.90;;;5.30;;
44218;SDS011;29889;52.034;5.570;2022-10-17T03:24:54;8.13;;;5.68;;
44218;SDS011;29889;52.034;5.570;2022-10-17T03:25:25;6.07;;;5.15;;
44218;SDS011;29889;52.034;5.570;2022-10-17T03:25:56;5.55;;;5.05;;
44218;SDS011;29889;52.034;5.570;2022-10-17T03:26:27;6.38;;;5.57;;
44218;SDS011;29889;52.034;5.570;2022-10-17T03:26:58;8.90;;;6.00;;
44218;SDS011;29889;52.034;5.570;2022-10-17T03:27:29;4.70;;;4.20;;
44218;SDS011;29889;52.034;5.570;2022-10-17T03:28:00;7.15;;;4.85;;
44218;SDS011;29889;52.034;5.570;2022-10-17T03:28:32;5.63;;;4.97;;
44218;SDS011;29889;52.034;5.570;2022-10-17T03:29:03;7.57;;;5.78;;
44218;SDS011;29889;52.034;5.570;2022-10-17T03:29:34;10.43;;;5.43;;
44218;SDS011;29889;52.034;5.570;2022-10-17T03:30:05;6.75;;;5.18;;
44218;SDS011;29889;52.034;5.570;2022-10-17T03:30:37;6.10;;;5.38;;
44218;SDS011;29889;52.034;5.570;2022-10-17T03:31:09;6.53;;;5.15;;
44218;SDS011;29889;52.034;5.570;2022-10-17T03:31:40;9.82;;;7.20;;
44218;SDS011;29889;52.034;5.570;2022-10-17T03:32:12;9.32;;;8.18;;
44218;SDS011;29889;52.034;5.570;2022-10-17T03:32:43;7.90;;;6.90;;
44218;SDS011;29889;52.034;5.570;2022-10-17T03:33:14;8.13;;;5.95;;
44218;SDS011;29889;52.034;5.570;2022-10-17T03:33:45;8.75;;;6.28;;
44218;SDS011;29889;52.034;5.570;2022-10-17T03:34:16;6.05;;;5.13;;
44218;SDS011;29889;52.034;5.570;2022-10-17T03:34:47;6.05;;;4.80;;
44218;SDS011;29889;52.034;5.570;2022-10-17T03:35:18;6.60;;;4.13;;
44218;SDS011;29889;52.034;5.570;2022-10-17T03:35:49;5.80;;;4.70;;
44218;SDS011;29889;52.034;5.570;2022-10-17T03:36:20;6.43;;;4.80;;
44218;SDS011;29889;52.034;5.570;2022-10-17T03:36:51;8.70;;;4.90;;
44218;SDS011;29889;52.034;5.570;2022-10-17T03:37:22;7.45;;;5.15;;
44218;SDS011;29889;52.034;5.570;2022-10-17T03:37:54;7.20;;;5.55;;
44218;SDS011;29889;52.034;5.570;2022-10-17T03:38:25;5.90;;;5.00;;
44218;SDS011;29889;52.034;5.570;2022-10-17T03:38:56;6.07;;;5.22;;
44218;SDS011;29889;52.034;5.570;2022-10-17T03:39:27;6.45;;;4.82;;
44218;SDS011;29889;52.034;5.570;2022-10-17T03:39:58;6.73;;;5.27;;
44218;SDS011;29889;52.034;5.570;2022-10-17T03:40:29;5.83;;;4.13;;
44218;SDS011;29889;52.034;5.570;2022-10-17T03:41:00;5.63;;;4.90;;
44218;SDS011;29889;52.034;5.570;2022-10-17T03:41:31;6.53;;;5.15;;
44218;SDS011;29889;52.034;5.570;2022-10-17T03:42:02;5.93;;;4.90;;
44218;SDS011;29889;52.034;5.570;2022-10-17T03:42:33;5.55;;;4.65;;
44218;SDS011;29889;52.034;5.570;2022-10-17T03:43:04;6.03;;;5.05;;
44218;SDS011;29889;52.034;5.570;2022-10-17T03:43:35;4.28;;;3.70;;
44218;SDS011;29889;52.034;5.570;2022-10-17T03:44:07;4.90;;;4.30;;
44218;SDS011;29889;52.034;5.570;2022-10-17T03:44:37;5.03;;;4.53;;
44218;SDS011;29889;52.034;5.570;2022-10-17T03:45:09;5.65;;;4.90;;
44218;SDS011;29889;52.034;5.570;2022-10-17T03:45:40;5.70;;;5.13;;
44218;SDS011;29889;52.034;5.570;2022-10-17T03:46:11;5.30;;;4.75;;
44218;SDS011;29889;52.034;5.570;2022-10-17T03:46:42;10.55;;;5.00;;
44218;SDS011;29889;52.034;5.570;2022-10-17T03:47:13;7.45;;;4.65;;